createdAt,value
2019-01-20T00:00:49.872Z,11.40
2019-01-20T00:03:16.134Z,10.55
2019-01-20T00:05:42.239Z,10.78
2019-01-20T00:08:08.272Z,10.05
2019-01-20T00:10:42.311Z,10.88
2019-01-20T00:13:08.761Z,9.40
2019-01-20T00:15:37.463Z,12.65
2019-01-20T00:18:09.576Z,10.55
2019-01-20T00:20:36.770Z,10.88
2019-01-20T00:23:02.971Z,10.30
2019-01-20T00:25:31.223Z,10.78
2019-01-20T00:27:57.407Z,10.82
2019-01-20T00:30:23.676Z,10.15
2019-01-20T00:32:49.744Z,12.05
2019-01-20T00:35:29.040Z,10.80
2019-01-20T00:38:02.075Z,11.30
2019-01-20T00:40:29.198Z,10.72
2019-01-20T00:42:55.219Z,12.10
2019-01-20T00:45:22.149Z,9.13
2019-01-20T00:47:48.189Z,10.40
2019-01-20T00:50:15.542Z,10.45
2019-01-20T00:52:41.876Z,9.65
2019-01-20T00:55:11.256Z,11.43
2019-01-20T00:57:38.301Z,10.75
2019-01-20T01:00:13.966Z,12.47
2019-01-20T01:02:40.532Z,11.20
2019-01-20T01:05:06.727Z,9.93
2019-01-20T01:07:32.793Z,11.30
2019-01-20T01:09:58.856Z,11.25
2019-01-20T01:12:25.932Z,10.15
2019-01-20T01:14:51.957Z,10.48
2019-01-20T01:17:18.098Z,10.90
2019-01-20T01:19:50.179Z,10.20
2019-01-20T01:22:16.354Z,10.88
2019-01-20T01:24:42.495Z,11.10
2019-01-20T01:27:09.645Z,10.03
2019-01-20T01:29:35.783Z,9.95
2019-01-20T01:32:03.053Z,10.10
2019-01-20T01:34:30.223Z,10.53
2019-01-20T01:36:57.475Z,10.48
2019-01-20T01:39:24.634Z,10.40
2019-01-20T01:41:50.828Z,10.08
2019-01-20T01:44:16.945Z,9.48
2019-01-20T01:46:44.047Z,9.80
2019-01-20T01:49:11.179Z,9.40
2019-01-20T01:51:37.284Z,10.45
2019-01-20T01:54:05.418Z,9.95
2019-01-20T01:56:31.552Z,10.78
2019-01-20T01:58:58.630Z,10.18
2019-01-20T02:01:25.779Z,11.22
2019-01-20T02:03:52.897Z,9.03
2019-01-20T02:06:19.063Z,10.90
2019-01-20T02:08:52.025Z,10.15
2019-01-20T02:11:22.211Z,10.30
2019-01-20T02:13:48.308Z,11.03
2019-01-20T02:16:14.402Z,9.10
2019-01-20T02:18:41.414Z,10.18
2019-01-20T02:21:08.789Z,10.08
2019-01-20T02:23:34.810Z,10.80
2019-01-20T02:26:03.052Z,9.83
2019-01-20T02:28:30.131Z,9.83
2019-01-20T02:30:56.231Z,11.63
2019-01-20T02:33:22.319Z,10.00
2019-01-20T02:35:48.369Z,10.18
2019-01-20T02:38:20.161Z,10.20
2019-01-20T02:40:47.235Z,10.23
2019-01-20T02:43:14.377Z,9.83
2019-01-20T02:45:40.505Z,10.28
2019-01-20T02:48:10.616Z,11.33
2019-01-20T02:50:37.767Z,10.10
2019-01-20T02:53:03.913Z,9.60
2019-01-20T02:55:31.977Z,10.03
2019-01-20T02:57:58.010Z,10.08
2019-01-20T03:00:25.353Z,10.53
2019-01-20T03:02:55.454Z,9.05
2019-01-20T03:05:21.998Z,9.13
2019-01-20T03:07:48.184Z,9.55
2019-01-20T03:10:21.138Z,10.43
2019-01-20T03:12:47.151Z,9.95
2019-01-20T03:15:13.685Z,9.90
2019-01-20T03:17:42.104Z,12.50
2019-01-20T03:20:20.130Z,10.75
2019-01-20T03:22:46.471Z,9.88
2019-01-20T03:25:15.822Z,9.55
2019-01-20T03:27:45.286Z,10.58
2019-01-20T03:30:16.656Z,9.45
2019-01-20T03:32:42.693Z,9.95
2019-01-20T03:35:12.038Z,11.80
2019-01-20T03:37:42.188Z,11.12
2019-01-20T03:40:11.556Z,11.05
2019-01-20T03:42:38.865Z,9.73
2019-01-20T03:45:08.756Z,10.18
2019-01-20T03:47:40.925Z,9.95
2019-01-20T03:50:12.822Z,9.75
2019-01-20T03:52:44.783Z,10.60
2019-01-20T03:55:14.498Z,10.53
2019-01-20T03:57:40.592Z,10.68
2019-01-20T04:00:20.877Z,10.85
2019-01-20T04:02:49.052Z,10.63
2019-01-20T04:05:22.313Z,10.10
2019-01-20T04:07:49.798Z,10.38
2019-01-20T04:10:17.470Z,9.85
2019-01-20T04:12:43.585Z,10.30
2019-01-20T04:15:11.909Z,10.20
2019-01-20T04:17:39.291Z,11.30
2019-01-20T04:20:07.417Z,11.78
2019-01-20T04:22:35.545Z,10.95
2019-01-20T04:25:08.532Z,10.72
2019-01-20T04:27:42.455Z,10.48
2019-01-20T04:30:11.180Z,11.35
2019-01-20T04:32:39.490Z,10.08
2019-01-20T04:35:07.774Z,10.25
2019-01-20T04:37:35.009Z,10.80
2019-01-20T04:40:13.730Z,10.43
2019-01-20T04:42:45.735Z,11.12
2019-01-20T04:45:16.982Z,10.80
2019-01-20T04:47:43.418Z,10.48
2019-01-20T04:50:19.474Z,11.35
2019-01-20T04:52:47.623Z,11.33
2019-01-20T04:55:14.157Z,10.10
2019-01-20T04:57:43.103Z,11.65
2019-01-20T05:00:12.542Z,10.85
2019-01-20T05:02:46.615Z,12.20
2019-01-20T05:05:13.195Z,14.13
2019-01-20T05:07:41.383Z,12.35
2019-01-20T05:10:13.682Z,11.73
2019-01-20T05:12:43.768Z,11.50
2019-01-20T05:15:15.809Z,12.58
2019-01-20T05:17:44.318Z,12.98
2019-01-20T05:20:11.142Z,12.03
2019-01-20T05:22:37.140Z,11.83
2019-01-20T05:25:07.203Z,10.85
2019-01-20T05:27:34.411Z,12.03
2019-01-20T05:30:02.749Z,11.55
2019-01-20T05:32:28.858Z,12.05
2019-01-20T05:34:56.915Z,11.73
2019-01-20T05:37:27.615Z,11.30
2019-01-20T05:39:54.756Z,11.73
2019-01-20T05:42:22.202Z,11.70
2019-01-20T05:44:49.726Z,11.60
2019-01-20T05:47:23.930Z,11.43
2019-01-20T05:49:50.056Z,11.50
2019-01-20T05:52:16.159Z,11.30
2019-01-20T05:54:43.646Z,11.53
2019-01-20T05:57:09.828Z,11.48
2019-01-20T05:59:37.768Z,11.40
2019-01-20T06:02:08.908Z,12.37
2019-01-20T06:04:35.928Z,12.40
2019-01-20T06:07:03.669Z,12.50
2019-01-20T06:09:29.777Z,11.65
2019-01-20T06:12:10.981Z,11.35
2019-01-20T06:14:39.093Z,11.35
2019-01-20T06:17:19.459Z,12.00
2019-01-20T06:19:51.389Z,12.88
2019-01-20T06:22:17.510Z,12.58
2019-01-20T06:24:43.947Z,11.43
2019-01-20T06:27:11.729Z,12.55
2019-01-20T06:29:37.764Z,11.50
2019-01-20T06:32:04.093Z,11.60
2019-01-20T06:34:32.464Z,11.10
2019-01-20T06:36:58.562Z,11.70
2019-01-20T06:39:24.687Z,10.25
2019-01-20T06:41:52.799Z,11.97
2019-01-20T06:44:19.854Z,11.65
2019-01-20T06:46:45.976Z,11.95
2019-01-20T06:49:13.053Z,12.18
2019-01-20T06:51:41.155Z,12.43
2019-01-20T06:54:07.260Z,11.12
2019-01-20T06:56:42.829Z,10.35
2019-01-20T06:59:17.019Z,11.10
2019-01-20T07:01:44.094Z,12.18
2019-01-20T07:04:12.270Z,11.97
2019-01-20T07:06:38.343Z,11.95
2019-01-20T07:09:05.066Z,11.25
2019-01-20T07:11:32.087Z,11.40
2019-01-20T07:13:59.231Z,12.15
2019-01-20T07:16:28.546Z,12.30
2019-01-20T07:18:55.753Z,12.65
2019-01-20T07:21:21.804Z,13.85
2019-01-20T07:23:54.201Z,12.05
2019-01-20T07:26:20.311Z,13.48
2019-01-20T07:28:54.334Z,12.43
2019-01-20T07:31:20.437Z,12.40
2019-01-20T07:33:46.480Z,13.18
2019-01-20T07:36:16.556Z,12.88
2019-01-20T07:38:44.870Z,13.25
2019-01-20T07:41:10.900Z,12.35
2019-01-20T07:43:38.005Z,12.73
2019-01-20T07:46:04.186Z,13.58
2019-01-20T07:48:30.223Z,12.15
2019-01-20T07:50:59.511Z,11.70
2019-01-20T07:53:26.621Z,12.75
2019-01-20T07:55:53.810Z,12.65
2019-01-20T07:58:20.012Z,11.97
2019-01-20T08:00:47.100Z,12.60
2019-01-20T08:03:14.317Z,13.50
2019-01-20T08:06:02.360Z,13.72
2019-01-20T08:08:31.869Z,13.65
2019-01-20T08:11:01.613Z,12.47
2019-01-20T08:13:35.871Z,13.20
2019-01-20T08:16:03.260Z,12.25
2019-01-20T08:18:29.455Z,12.93
2019-01-20T08:21:11.051Z,12.58
2019-01-20T08:23:37.870Z,12.70
2019-01-20T08:26:04.979Z,12.53
2019-01-20T08:28:38.618Z,13.28
2019-01-20T08:31:07.757Z,14.05
2019-01-20T08:33:44.787Z,13.28
2019-01-20T08:36:17.963Z,12.70
2019-01-20T08:38:49.969Z,13.62
2019-01-20T08:41:18.237Z,13.65
2019-01-20T08:43:44.295Z,14.95
2019-01-20T08:46:14.240Z,13.65
2019-01-20T08:48:40.611Z,13.68
2019-01-20T08:51:14.544Z,14.23
2019-01-20T08:53:45.198Z,15.72
2019-01-20T08:56:17.263Z,13.90
2019-01-20T08:58:43.309Z,14.33
2019-01-20T09:01:12.041Z,14.33
2019-01-20T09:03:38.102Z,13.55
2019-01-20T09:06:04.275Z,14.93
2019-01-20T09:08:31.755Z,15.18
2019-01-20T09:11:08.888Z,13.83
2019-01-20T09:13:44.011Z,14.63
2019-01-20T09:16:11.095Z,14.60
2019-01-20T09:18:38.291Z,15.15
2019-01-20T09:21:05.173Z,16.17
2019-01-20T09:23:37.254Z,14.95
2019-01-20T09:26:04.661Z,14.07
2019-01-20T09:28:30.723Z,16.50
2019-01-20T09:30:57.541Z,15.58
2019-01-20T09:33:25.021Z,16.60
2019-01-20T09:35:57.710Z,15.23
2019-01-20T09:38:23.793Z,17.12
2019-01-20T09:40:51.013Z,16.23
2019-01-20T09:43:19.127Z,17.02
2019-01-20T09:45:48.862Z,14.78
2019-01-20T09:48:15.970Z,16.15
2019-01-20T09:50:42.118Z,19.50
2019-01-20T09:53:08.437Z,16.80
2019-01-20T09:55:34.605Z,16.70
2019-01-20T09:58:04.147Z,18.00
2019-01-20T10:00:34.210Z,18.60
2019-01-20T10:03:02.545Z,17.80
2019-01-20T10:05:39.005Z,15.60
2019-01-20T10:08:05.107Z,17.12
2019-01-20T10:10:32.392Z,18.10
2019-01-20T10:12:58.465Z,21.05
2019-01-20T10:15:24.638Z,17.80
2019-01-20T10:17:56.499Z,18.25
2019-01-20T10:20:31.361Z,18.35
2019-01-20T10:22:59.241Z,19.90
2019-01-20T10:25:25.349Z,17.65
2019-01-20T10:27:52.641Z,17.73
2019-01-20T10:30:34.642Z,19.50
2019-01-20T10:33:00.768Z,22.95
2019-01-20T10:35:42.826Z,21.50
2019-01-20T10:38:10.268Z,20.10
2019-01-20T10:40:39.520Z,17.57
2019-01-20T10:43:13.165Z,24.37
2019-01-20T10:45:41.301Z,20.80
2019-01-20T10:48:07.895Z,18.87
2019-01-20T10:50:34.087Z,19.10
2019-01-20T10:53:03.512Z,21.27
2019-01-20T10:55:31.998Z,20.27
2019-01-20T10:57:58.190Z,23.45
2019-01-20T11:00:30.590Z,34.48
2019-01-20T11:02:56.902Z,19.50
2019-01-20T11:05:25.078Z,19.30
2019-01-20T11:07:52.171Z,19.75
2019-01-20T11:10:20.469Z,18.42
2019-01-20T11:12:49.834Z,19.75
2019-01-20T11:15:17.118Z,19.27
2019-01-20T11:17:50.390Z,19.32
2019-01-20T11:20:22.731Z,21.45
2019-01-20T11:22:52.256Z,18.90
2019-01-20T11:25:27.443Z,19.23
2019-01-20T11:27:59.506Z,19.65
2019-01-20T11:30:25.606Z,19.65
2019-01-20T11:32:53.035Z,18.48
2019-01-20T11:35:19.327Z,20.08
2019-01-20T11:37:46.616Z,19.52
2019-01-20T11:40:13.748Z,19.27
2019-01-20T11:42:41.736Z,19.98
2019-01-20T11:45:17.799Z,21.45
2019-01-20T11:47:44.070Z,20.00
2019-01-20T11:50:11.544Z,19.60
2019-01-20T11:52:40.807Z,20.15
2019-01-20T11:55:10.622Z,19.17
2019-01-20T11:57:36.878Z,18.45
2019-01-20T12:00:17.406Z,19.12
2019-01-20T12:02:56.953Z,19.57
2019-01-20T12:05:23.374Z,18.92
2019-01-20T12:07:49.493Z,20.65
2019-01-20T12:10:16.872Z,20.68
2019-01-20T12:12:44.951Z,19.30
2019-01-20T12:15:17.285Z,20.25
2019-01-20T12:17:53.591Z,19.60
2019-01-20T12:20:23.694Z,20.15
2019-01-20T12:23:06.906Z,20.75
2019-01-20T12:25:34.102Z,20.45
2019-01-20T12:28:03.811Z,19.73
2019-01-20T12:30:42.155Z,23.07
2019-01-20T12:33:10.882Z,19.73
2019-01-20T12:35:37.084Z,19.32
2019-01-20T12:38:04.461Z,19.73
2019-01-20T12:40:49.929Z,19.73
2019-01-20T12:43:41.964Z,20.85
2019-01-20T12:46:15.391Z,18.02
2019-01-20T12:48:51.869Z,21.05
2019-01-20T12:51:28.751Z,20.68
2019-01-20T12:53:56.256Z,22.98
2019-01-20T12:56:31.253Z,20.90
2019-01-20T12:59:27.408Z,18.70
2019-01-20T13:01:53.708Z,22.67
2019-01-20T13:04:29.250Z,20.43
2019-01-20T13:07:01.640Z,21.62
2019-01-20T13:09:40.221Z,21.95
2019-01-20T13:12:07.405Z,21.02
2019-01-20T13:14:44.040Z,18.57
2019-01-20T13:17:11.051Z,20.80
2019-01-20T13:19:38.312Z,20.57
2019-01-20T13:22:18.624Z,18.87
2019-01-20T13:24:51.075Z,18.55
2019-01-20T13:27:21.349Z,18.37
2019-01-20T13:30:07.572Z,18.92
2019-01-20T13:32:49.231Z,19.50
2019-01-20T13:35:29.202Z,21.23
2019-01-20T13:38:08.997Z,18.48
2019-01-20T13:41:04.373Z,18.23
2019-01-20T13:43:35.343Z,19.02
2019-01-20T13:46:03.069Z,20.05
2019-01-20T13:48:38.202Z,19.20
2019-01-20T13:51:12.551Z,21.27
2019-01-20T13:53:39.811Z,19.45
2019-01-20T13:56:09.940Z,19.03
2019-01-20T13:58:46.997Z,18.32
2019-01-20T14:01:13.025Z,19.50
2019-01-20T14:03:39.359Z,19.30
2019-01-20T14:06:06.630Z,20.37
2019-01-20T14:08:32.980Z,21.20
2019-01-20T14:11:03.506Z,19.83
2019-01-20T14:13:29.733Z,19.30
2019-01-20T14:15:59.857Z,21.57
2019-01-20T14:18:31.903Z,20.07
2019-01-20T14:20:58.084Z,17.97
2019-01-20T14:23:37.573Z,19.47
2019-01-20T14:26:05.613Z,20.00
2019-01-20T14:28:42.088Z,20.47
2019-01-20T14:31:09.272Z,19.40
2019-01-20T14:33:40.510Z,17.77
2019-01-20T14:36:26.782Z,19.30
2019-01-20T14:39:10.417Z,19.33
2019-01-20T14:41:38.552Z,17.93
2019-01-20T14:44:04.948Z,20.10
2019-01-20T14:46:43.151Z,19.53
2019-01-20T14:49:18.910Z,19.53
2019-01-20T14:51:55.191Z,18.03
2019-01-20T14:54:27.549Z,18.53
2019-01-20T14:56:59.914Z,19.65
2019-01-20T14:59:27.115Z,18.90
2019-01-20T15:01:53.361Z,36.13
2019-01-20T15:04:23.432Z,28.65
2019-01-20T15:06:50.840Z,25.00
2019-01-20T15:09:17.203Z,36.30
2019-01-20T15:11:43.531Z,28.02
2019-01-20T15:14:09.728Z,24.12
2019-01-20T15:16:48.923Z,35.13
2019-01-20T15:19:15.202Z,37.83
2019-01-20T15:21:52.076Z,21.62
2019-01-20T15:24:31.035Z,39.78
2019-01-20T15:26:56.615Z,30.45
2019-01-20T15:29:26.844Z,30.55
2019-01-20T15:31:54.204Z,22.67
2019-01-20T15:34:20.554Z,21.40
2019-01-20T15:36:50.162Z,18.32
2019-01-20T15:39:31.847Z,18.70
2019-01-20T15:42:02.491Z,19.55
2019-01-20T15:44:40.722Z,17.73
2019-01-20T15:47:10.999Z,19.48
2019-01-20T15:49:45.687Z,18.17
2019-01-20T15:52:19.999Z,20.15
2019-01-20T15:54:51.347Z,20.80
2019-01-20T15:57:23.850Z,20.25
2019-01-20T15:59:55.406Z,21.68
2019-01-20T16:02:30.840Z,21.05
2019-01-20T16:05:06.449Z,22.17
2019-01-20T16:07:39.417Z,20.40
2019-01-20T16:10:09.415Z,20.35
2019-01-20T16:12:46.163Z,21.87
2019-01-20T16:15:16.135Z,22.67
2019-01-20T16:17:52.394Z,21.30
2019-01-20T16:20:18.840Z,20.62
2019-01-20T16:22:50.075Z,22.20
2019-01-20T16:25:32.047Z,21.07
2019-01-20T16:27:59.442Z,20.30
2019-01-20T16:30:48.645Z,20.12
2019-01-20T16:33:16.910Z,20.85
2019-01-20T16:35:56.795Z,20.68
2019-01-20T16:38:23.041Z,21.52
2019-01-20T16:40:49.208Z,22.02
2019-01-20T16:43:20.315Z,21.05
2019-01-20T16:45:46.671Z,18.90
2019-01-20T16:48:22.541Z,20.50
2019-01-20T16:50:54.585Z,20.65
2019-01-20T16:53:24.145Z,22.60
2019-01-20T16:55:58.413Z,20.48
2019-01-20T16:58:34.822Z,21.10
2019-01-20T17:01:04.016Z,23.35
2019-01-20T17:03:32.077Z,22.95
2019-01-20T17:05:59.298Z,21.55
2019-01-20T17:08:35.378Z,22.15
2019-01-20T17:11:03.759Z,21.87
2019-01-20T17:13:33.857Z,22.30
2019-01-20T17:16:01.198Z,24.75
2019-01-20T17:18:32.975Z,22.22
2019-01-20T17:21:11.478Z,22.85
2019-01-20T17:23:38.542Z,22.73
2019-01-20T17:26:06.979Z,23.95
2019-01-20T17:28:43.911Z,22.13
2019-01-20T17:31:16.046Z,23.12
2019-01-20T17:33:53.111Z,22.22
2019-01-20T17:36:25.744Z,23.25
2019-01-20T17:39:01.613Z,22.58
2019-01-20T17:41:36.036Z,22.90
2019-01-20T17:44:08.018Z,22.17
2019-01-20T17:46:35.226Z,24.10
2019-01-20T17:49:02.495Z,23.40
2019-01-20T17:51:29.388Z,23.95
2019-01-20T17:53:58.393Z,22.07
2019-01-20T17:56:26.614Z,23.02
2019-01-20T17:58:53.661Z,22.98
2019-01-20T18:01:25.807Z,21.95
2019-01-20T18:03:57.193Z,22.65
2019-01-20T18:06:25.693Z,23.85
2019-01-20T18:08:52.221Z,23.75
2019-01-20T18:11:18.626Z,24.25
2019-01-20T18:13:52.191Z,24.32
2019-01-20T18:16:19.535Z,23.70
2019-01-20T18:18:46.756Z,24.43
2019-01-20T18:21:23.928Z,23.70
2019-01-20T18:23:53.049Z,24.15
2019-01-20T18:26:20.305Z,23.15
2019-01-20T18:28:46.295Z,24.55
2019-01-20T18:31:15.555Z,25.72
2019-01-20T18:33:41.720Z,21.80
2019-01-20T18:36:08.181Z,22.10
2019-01-20T18:38:34.180Z,24.40
2019-01-20T18:41:06.135Z,22.87
2019-01-20T18:43:33.477Z,23.30
2019-01-20T18:46:18.918Z,23.77
2019-01-20T18:48:48.842Z,22.70
2019-01-20T18:51:18.272Z,23.10
2019-01-20T18:53:44.397Z,23.45
2019-01-20T18:56:18.624Z,22.87
2019-01-20T18:58:55.892Z,23.50
2019-01-20T19:01:29.088Z,22.55
2019-01-20T19:04:13.383Z,24.10
2019-01-20T19:06:42.716Z,23.05
2019-01-20T19:09:16.930Z,24.15
2019-01-20T19:11:47.264Z,25.65
2019-01-20T19:14:16.871Z,25.43
2019-01-20T19:16:45.075Z,24.45
2019-01-20T19:19:16.411Z,24.72
2019-01-20T19:21:43.744Z,24.90
2019-01-20T19:24:14.830Z,25.17
2019-01-20T19:26:51.324Z,26.15
2019-01-20T19:29:18.635Z,22.37
2019-01-20T19:31:53.894Z,24.30
2019-01-20T19:34:23.026Z,23.75
2019-01-20T19:36:52.356Z,24.77
2019-01-20T19:39:18.401Z,25.77
2019-01-20T19:41:44.631Z,27.55
2019-01-20T19:44:10.765Z,26.30
2019-01-20T19:46:38.141Z,25.55
2019-01-20T19:49:07.657Z,26.00
2019-01-20T19:51:36.918Z,26.80
2019-01-20T19:54:05.009Z,28.75
2019-01-20T19:56:31.215Z,27.17
2019-01-20T19:59:02.735Z,26.90
2019-01-20T20:01:32.819Z,27.35
2019-01-20T20:04:05.780Z,26.95
2019-01-20T20:06:33.030Z,26.45
2019-01-20T20:09:00.231Z,26.30
2019-01-20T20:11:26.494Z,25.05
2019-01-20T20:14:00.054Z,26.37
2019-01-20T20:16:26.281Z,27.52
2019-01-20T20:19:05.861Z,26.93
2019-01-20T20:21:44.584Z,27.20
2019-01-20T20:24:10.711Z,26.17
2019-01-20T20:26:44.084Z,27.02
2019-01-20T20:29:10.275Z,25.85
2019-01-20T20:31:36.505Z,26.17
2019-01-20T20:34:04.562Z,25.72
2019-01-20T20:36:30.798Z,26.52
2019-01-20T20:39:06.927Z,26.82
2019-01-20T20:41:39.273Z,26.95
2019-01-20T20:44:19.624Z,26.95
2019-01-20T20:46:49.834Z,26.17
2019-01-20T20:49:17.022Z,26.75
2019-01-20T20:51:46.587Z,26.73
2019-01-20T20:54:12.815Z,26.90
2019-01-20T20:56:39.231Z,27.32
2019-01-20T20:59:13.795Z,26.60
2019-01-20T21:01:42.917Z,27.20
2019-01-20T21:04:09.214Z,27.02
2019-01-20T21:06:35.454Z,27.58
2019-01-20T21:09:02.050Z,26.05
2019-01-20T21:11:28.264Z,26.87
2019-01-20T21:14:10.166Z,27.32
2019-01-20T21:16:37.945Z,27.85
2019-01-20T21:19:06.675Z,28.02
2019-01-20T21:21:47.641Z,28.05
2019-01-20T21:24:16.247Z,28.42
2019-01-20T21:26:44.637Z,27.85
2019-01-20T21:29:12.020Z,29.30
2019-01-20T21:31:45.412Z,27.90
2019-01-20T21:34:28.285Z,29.05
2019-01-20T21:37:06.489Z,27.75
2019-01-20T21:39:38.769Z,27.30
2019-01-20T21:42:06.203Z,27.48
2019-01-20T21:44:35.743Z,27.30
2019-01-20T21:47:16.342Z,31.42
2019-01-20T21:49:48.337Z,33.98
2019-01-20T21:52:18.768Z,66.17
2019-01-20T21:54:48.861Z,39.48
2019-01-20T21:57:30.134Z,26.68
2019-01-20T21:59:58.400Z,25.65
2019-01-20T22:02:28.764Z,27.07
2019-01-20T22:05:01.861Z,27.05
2019-01-20T22:07:28.183Z,25.32
2019-01-20T22:09:56.232Z,28.47
2019-01-20T22:12:32.125Z,26.75
2019-01-20T22:15:12.482Z,25.35
2019-01-20T22:17:41.681Z,26.00
2019-01-20T22:20:18.059Z,26.52
2019-01-20T22:22:49.271Z,24.70
2019-01-20T22:25:45.553Z,29.18
2019-01-20T22:28:17.979Z,31.75
2019-01-20T22:30:53.562Z,29.77
2019-01-20T22:33:29.652Z,28.12
2019-01-20T22:35:55.943Z,27.45
2019-01-20T22:38:23.409Z,27.62
2019-01-20T22:40:49.576Z,27.73
2019-01-20T22:43:16.761Z,24.20
2019-01-20T22:45:50.923Z,24.37
2019-01-20T22:48:17.478Z,25.00
2019-01-20T22:50:45.620Z,24.85
2019-01-20T22:53:19.167Z,24.15
2019-01-20T22:55:43.829Z,24.92
2019-01-20T22:58:10.750Z,22.45
2019-01-20T23:00:52.059Z,23.15
2019-01-20T23:03:30.829Z,23.52
2019-01-20T23:05:57.106Z,22.85
2019-01-20T23:08:24.290Z,25.25
2019-01-20T23:10:51.689Z,23.22
2019-01-20T23:13:17.981Z,23.83
2019-01-20T23:15:50.465Z,23.42
2019-01-20T23:18:20.184Z,22.58
2019-01-20T23:20:46.253Z,22.27
2019-01-20T23:23:12.611Z,20.25
2019-01-20T23:25:38.729Z,20.92
2019-01-20T23:28:05.830Z,22.75
2019-01-20T23:30:42.825Z,20.70
2019-01-20T23:33:08.860Z,21.52
2019-01-20T23:35:35.097Z,22.37
2019-01-20T23:38:01.199Z,25.25
2019-01-20T23:40:30.425Z,23.32
2019-01-20T23:43:03.484Z,21.85
2019-01-20T23:45:29.534Z,21.20
2019-01-20T23:48:10.173Z,23.40
2019-01-20T23:50:36.434Z,22.58
2019-01-20T23:53:02.777Z,22.55
2019-01-20T23:55:28.858Z,22.25
2019-01-20T23:57:54.894Z,22.22
